ABI274 LEBB-LEMG
Flight info
| Callsign | ABI274 |
|---|---|
| Flight time | 1h 28m |
| Altitude | 33000 |
| Route | AMTOS L14 NEA N864 VULPE |
| Aircraft | B738/M-SDFGIJ1RWXYZ/SB1D1G1 |
Departure
| Time | 2026-05-04 19:27 |
|---|---|
| Airport | Bilbao Airport (LEBB) |
Arrival
| Time | 2026-05-04 20:55 |
|---|---|
| Airport | Málaga-Costa del Sol Airport (LEMG) |
| Time | Latitude | Longitude | Altitude | Speed | Heading |
|---|---|---|---|---|---|
| 2026-05-04 19:01 | 43.30423 | -2.90639 | 146 ft | 0 kts | 27° |
| 2026-05-04 19:18 | 43.30418 | -2.90643 | 146 ft | 2 kts | 27° |
| 2026-05-04 19:18 | 43.30403 | -2.90653 | 146 ft | 3 kts | 27° |
| 2026-05-04 19:19 | 43.30387 | -2.90668 | 146 ft | 3 kts | 52° |
| 2026-05-04 19:19 | 43.30380 | -2.90694 | 146 ft | 3 kts | 89° |
| 2026-05-04 19:19 | 43.30384 | -2.90719 | 146 ft | 0 kts | 116° |
| 2026-05-04 19:20 | 43.30384 | -2.90718 | 146 ft | 0 kts | 116° |
| 2026-05-04 19:22 | 43.30366 | -2.90671 | 146 ft | 13 kts | 118° |
| 2026-05-04 19:22 | 43.30294 | -2.90565 | 146 ft | 17 kts | 154° |
| 2026-05-04 19:22 | 43.30196 | -2.90552 | 146 ft | 12 kts | 201° |
| 2026-05-04 19:23 | 43.30112 | -2.90538 | 146 ft | 16 kts | 132° |
| 2026-05-04 19:23 | 43.30052 | -2.90386 | 146 ft | 19 kts | 115° |
| 2026-05-04 19:23 | 43.29991 | -2.90213 | 146 ft | 20 kts | 117° |
| 2026-05-04 19:23 | 43.29934 | -2.90054 | 146 ft | 18 kts | 116° |
| 2026-05-04 19:24 | 43.29870 | -2.89874 | 146 ft | 23 kts | 118° |
| 2026-05-04 19:24 | 43.29797 | -2.89684 | 146 ft | 20 kts | 115° |
| 2026-05-04 19:24 | 43.29738 | -2.89598 | 146 ft | 0 kts | 178° |
| 2026-05-04 19:25 | 43.29736 | -2.89598 | 146 ft | 3 kts | 180° |
| 2026-05-04 19:25 | 43.29675 | -2.89652 | 146 ft | 16 kts | 240° |
| 2026-05-04 19:25 | 43.29669 | -2.89811 | 146 ft | 20 kts | 287° |
| 2026-05-04 19:26 | 43.29740 | -2.90015 | 146 ft | 35 kts | 298° |
| 2026-05-04 19:26 | 43.29944 | -2.90586 | 146 ft | 98 kts | 296° |
| 2026-05-04 19:26 | 43.30338 | -2.91665 | 148 ft | 153 kts | 297° |
| 2026-05-04 19:26 | 43.30861 | -2.93043 | 639 ft | 161 kts | 298° |
| 2026-05-04 19:27 | 43.31412 | -2.94397 | 1380 ft | 162 kts | 300° |
| 2026-05-04 19:27 | 43.31871 | -2.95852 | 2025 ft | 174 kts | 289° |
| 2026-05-04 19:27 | 43.32377 | -2.97490 | 2398 ft | 199 kts | 297° |
| 2026-05-04 19:27 | 43.33137 | -2.99077 | 3118 ft | 202 kts | 311° |
| 2026-05-04 19:28 | 43.34183 | -3.00450 | 3763 ft | 213 kts | 319° |
| 2026-05-04 19:28 | 43.35355 | -3.01750 | 4493 ft | 220 kts | 322° |
| 2026-05-04 19:28 | 43.36572 | -3.03077 | 5271 ft | 225 kts | 321° |
| 2026-05-04 19:28 | 43.37743 | -3.04509 | 6040 ft | 229 kts | 308° |
| 2026-05-04 19:29 | 43.38386 | -3.06515 | 6784 ft | 234 kts | 280° |
| 2026-05-04 19:29 | 43.38271 | -3.08749 | 7550 ft | 239 kts | 256° |
| 2026-05-04 19:29 | 43.37681 | -3.10887 | 8392 ft | 240 kts | 247° |
| 2026-05-04 19:29 | 43.36677 | -3.12735 | 9164 ft | 246 kts | 221° |
| 2026-05-04 19:30 | 43.35157 | -3.13824 | 9951 ft | 249 kts | 201° |
| 2026-05-04 19:30 | 43.33495 | -3.14480 | 10810 ft | 247 kts | 197° |
| 2026-05-04 19:30 | 43.31829 | -3.15014 | 11648 ft | 245 kts | 193° |
| 2026-05-04 19:30 | 43.30134 | -3.15193 | 12451 ft | 245 kts | 181° |
| 2026-05-04 19:31 | 43.28450 | -3.14958 | 13233 ft | 244 kts | 175° |
| 2026-05-04 19:31 | 43.26786 | -3.14556 | 13990 ft | 242 kts | 173° |
| 2026-05-04 19:31 | 43.25154 | -3.14012 | 14715 ft | 242 kts | 165° |
| 2026-05-04 19:31 | 43.23610 | -3.13064 | 15420 ft | 243 kts | 157° |
| 2026-05-04 19:32 | 43.22134 | -3.11928 | 16108 ft | 242 kts | 154° |
| 2026-05-04 19:32 | 43.20647 | -3.10860 | 16640 ft | 244 kts | 167° |
| 2026-05-04 19:32 | 43.18934 | -3.10689 | 16882 ft | 254 kts | 192° |
| 2026-05-04 19:32 | 43.17202 | -3.11385 | 17159 ft | 268 kts | 202° |
| 2026-05-04 19:33 | 43.15404 | -3.12337 | 17402 ft | 286 kts | 203° |
| 2026-05-04 19:33 | 43.13512 | -3.13392 | 17634 ft | 303 kts | 205° |
| 2026-05-04 19:33 | 43.11537 | -3.14613 | 17866 ft | 320 kts | 206° |
| 2026-05-04 19:33 | 43.09465 | -3.15939 | 18080 ft | 337 kts | 206° |
| 2026-05-04 19:34 | 43.07303 | -3.17338 | 18326 ft | 351 kts | 206° |
| 2026-05-04 19:34 | 43.05073 | -3.18788 | 18803 ft | 358 kts | 206° |
| 2026-05-04 19:34 | 43.02780 | -3.20284 | 19393 ft | 361 kts | 206° |
| 2026-05-04 19:34 | 43.00547 | -3.21776 | 19988 ft | 363 kts | 209° |
| 2026-05-04 19:35 | 42.98343 | -3.23574 | 20568 ft | 366 kts | 213° |
| 2026-05-04 19:35 | 42.96240 | -3.25492 | 21105 ft | 369 kts | 215° |
| 2026-05-04 19:35 | 42.94090 | -3.27505 | 21647 ft | 372 kts | 215° |
| 2026-05-04 19:35 | 42.91968 | -3.29487 | 22160 ft | 376 kts | 215° |
| 2026-05-04 19:36 | 42.89774 | -3.31531 | 22669 ft | 379 kts | 215° |
| 2026-05-04 19:36 | 42.87621 | -3.33530 | 23196 ft | 381 kts | 215° |
| 2026-05-04 19:36 | 42.85421 | -3.35569 | 23664 ft | 384 kts | 215° |
| 2026-05-04 19:36 | 42.83201 | -3.37623 | 24128 ft | 387 kts | 215° |
| 2026-05-04 19:37 | 42.80971 | -3.39683 | 24618 ft | 388 kts | 215° |
| 2026-05-04 19:37 | 42.78727 | -3.41753 | 25089 ft | 390 kts | 215° |
| 2026-05-04 19:37 | 42.77205 | -3.43154 | 25396 ft | 392 kts | 215° |
| 2026-05-04 19:37 | 42.74212 | -3.45909 | 25983 ft | 394 kts | 215° |
| 2026-05-04 19:38 | 42.71929 | -3.48008 | 26416 ft | 396 kts | 215° |
| 2026-05-04 19:38 | 42.69650 | -3.50119 | 26835 ft | 398 kts | 215° |
| 2026-05-04 19:38 | 42.68103 | -3.51549 | 27098 ft | 399 kts | 215° |
| 2026-05-04 19:38 | 42.65052 | -3.54366 | 27621 ft | 401 kts | 215° |
| 2026-05-04 19:39 | 42.63491 | -3.55804 | 27881 ft | 402 kts | 215° |
| 2026-05-04 19:39 | 42.61171 | -3.57937 | 28268 ft | 404 kts | 215° |
| 2026-05-04 19:39 | 42.58847 | -3.60071 | 28769 ft | 401 kts | 215° |
| 2026-05-04 19:39 | 42.56540 | -3.62187 | 29302 ft | 399 kts | 215° |
| 2026-05-04 19:40 | 42.54542 | -3.64016 | 29715 ft | 397 kts | 215° |
| 2026-05-04 19:40 | 42.52254 | -3.66109 | 30179 ft | 395 kts | 216° |
| 2026-05-04 19:40 | 42.49978 | -3.68189 | 30592 ft | 395 kts | 216° |
| 2026-05-04 19:40 | 42.47699 | -3.70269 | 30956 ft | 395 kts | 215° |
| 2026-05-04 19:41 | 42.45420 | -3.72348 | 31312 ft | 396 kts | 215° |
| 2026-05-04 19:41 | 42.43131 | -3.74433 | 31682 ft | 396 kts | 215° |
| 2026-05-04 19:41 | 42.40847 | -3.76512 | 32055 ft | 395 kts | 215° |
| 2026-05-04 19:41 | 42.38571 | -3.78581 | 32411 ft | 395 kts | 215° |
| 2026-05-04 19:42 | 42.36291 | -3.80653 | 32761 ft | 395 kts | 215° |
| 2026-05-04 19:42 | 42.33997 | -3.82735 | 32978 ft | 398 kts | 215° |
| 2026-05-04 19:42 | 42.31724 | -3.84796 | 32985 ft | 400 kts | 215° |
| 2026-05-04 19:43 | 42.27118 | -3.88986 | 32993 ft | 397 kts | 215° |
| 2026-05-04 19:43 | 42.22544 | -3.93132 | 32994 ft | 396 kts | 215° |
| 2026-05-04 19:44 | 42.17936 | -3.97287 | 32994 ft | 396 kts | 215° |
| 2026-05-04 19:44 | 42.13355 | -4.01404 | 32996 ft | 394 kts | 217° |
| 2026-05-04 19:45 | 42.08840 | -4.05457 | 32993 ft | 387 kts | 218° |
| 2026-05-04 19:45 | 42.04276 | -4.09216 | 32992 ft | 391 kts | 208° |
| 2026-05-04 19:46 | 41.98904 | -4.11086 | 32995 ft | 402 kts | 194° |
| 2026-05-04 19:46 | 41.93367 | -4.11910 | 32994 ft | 404 kts | 191° |
| 2026-05-04 19:47 | 41.87763 | -4.12588 | 32993 ft | 404 kts | 191° |
| 2026-05-04 19:47 | 41.82120 | -4.13249 | 32994 ft | 404 kts | 191° |
| 2026-05-04 19:48 | 41.76558 | -4.13894 | 32994 ft | 404 kts | 191° |
| 2026-05-04 19:48 | 41.70947 | -4.14530 | 32990 ft | 405 kts | 191° |
| 2026-05-04 19:49 | 41.65293 | -4.15176 | 32998 ft | 408 kts | 191° |
| 2026-05-04 19:49 | 41.59624 | -4.15818 | 32996 ft | 404 kts | 191° |
| 2026-05-04 19:50 | 41.54054 | -4.16446 | 32997 ft | 404 kts | 191° |
| 2026-05-04 19:50 | 41.48445 | -4.17079 | 32997 ft | 404 kts | 191° |
| 2026-05-04 19:51 | 41.42842 | -4.17709 | 32998 ft | 404 kts | 191° |
| 2026-05-04 19:51 | 41.37249 | -4.18336 | 32998 ft | 404 kts | 191° |
| 2026-05-04 19:52 | 41.31639 | -4.18963 | 32998 ft | 404 kts | 191° |
| 2026-05-04 19:52 | 41.26042 | -4.19589 | 32999 ft | 404 kts | 192° |
| 2026-05-04 19:53 | 41.20425 | -4.20218 | 32999 ft | 404 kts | 192° |
| 2026-05-04 19:53 | 41.14819 | -4.20843 | 32999 ft | 405 kts | 192° |
| 2026-05-04 19:54 | 41.09199 | -4.21468 | 32999 ft | 404 kts | 192° |
| 2026-05-04 19:54 | 41.03591 | -4.22091 | 32999 ft | 404 kts | 192° |
| 2026-05-04 19:55 | 40.97985 | -4.22697 | 32999 ft | 405 kts | 192° |
| 2026-05-04 19:55 | 40.92374 | -4.23324 | 32995 ft | 404 kts | 192° |
| 2026-05-04 19:56 | 40.86757 | -4.23947 | 32994 ft | 405 kts | 192° |
| 2026-05-04 19:56 | 40.81144 | -4.24567 | 32994 ft | 406 kts | 192° |
| 2026-05-04 19:57 | 40.75521 | -4.25186 | 32994 ft | 405 kts | 192° |
| 2026-05-04 19:57 | 40.69900 | -4.25804 | 32994 ft | 405 kts | 192° |
| 2026-05-04 19:58 | 40.64292 | -4.26421 | 32994 ft | 405 kts | 193° |
| 2026-05-04 19:58 | 40.58675 | -4.27039 | 32994 ft | 405 kts | 193° |
| 2026-05-04 19:59 | 40.53045 | -4.27656 | 32996 ft | 406 kts | 193° |
| 2026-05-04 19:59 | 40.47425 | -4.28271 | 32996 ft | 405 kts | 193° |
| 2026-05-04 20:00 | 40.41795 | -4.28885 | 32996 ft | 405 kts | 193° |
| 2026-05-04 20:00 | 40.36545 | -4.29457 | 32996 ft | 405 kts | 193° |
| 2026-05-04 20:01 | 40.30928 | -4.30067 | 32996 ft | 405 kts | 193° |
| 2026-05-04 20:01 | 40.25303 | -4.30680 | 32997 ft | 406 kts | 193° |
| 2026-05-04 20:02 | 40.19665 | -4.31292 | 32997 ft | 406 kts | 193° |
| 2026-05-04 20:02 | 40.14032 | -4.31901 | 32998 ft | 406 kts | 193° |
| 2026-05-04 20:03 | 40.08400 | -4.32508 | 32998 ft | 406 kts | 193° |
| 2026-05-04 20:03 | 40.02783 | -4.33113 | 32998 ft | 406 kts | 193° |
| 2026-05-04 20:04 | 39.97159 | -4.33721 | 32998 ft | 405 kts | 194° |
| 2026-05-04 20:04 | 39.91629 | -4.34797 | 32998 ft | 400 kts | 198° |
| 2026-05-04 20:05 | 39.86152 | -4.36050 | 32998 ft | 400 kts | 198° |
| 2026-05-04 20:05 | 39.80693 | -4.37245 | 32999 ft | 400 kts | 198° |
| 2026-05-04 20:06 | 39.75155 | -4.38439 | 32999 ft | 401 kts | 198° |
| 2026-05-04 20:06 | 39.69657 | -4.39613 | 33004 ft | 400 kts | 198° |
| 2026-05-04 20:07 | 39.64204 | -4.40775 | 33008 ft | 400 kts | 198° |
| 2026-05-04 20:07 | 39.58709 | -4.41944 | 33009 ft | 400 kts | 198° |
| 2026-05-04 20:08 | 39.53209 | -4.43116 | 33010 ft | 400 kts | 198° |
| 2026-05-04 20:08 | 39.47718 | -4.44289 | 33010 ft | 400 kts | 198° |
| 2026-05-04 20:09 | 39.42222 | -4.45456 | 33010 ft | 400 kts | 198° |
| 2026-05-04 20:09 | 39.36732 | -4.46618 | 33011 ft | 400 kts | 198° |
| 2026-05-04 20:10 | 39.31237 | -4.47778 | 33011 ft | 400 kts | 198° |
| 2026-05-04 20:10 | 39.25713 | -4.48943 | 33012 ft | 400 kts | 198° |
| 2026-05-04 20:11 | 39.20264 | -4.50094 | 33011 ft | 399 kts | 198° |
| 2026-05-04 20:11 | 39.14777 | -4.51252 | 33011 ft | 399 kts | 198° |
| 2026-05-04 20:12 | 39.09299 | -4.52404 | 33011 ft | 399 kts | 198° |
| 2026-05-04 20:12 | 39.03805 | -4.53556 | 33011 ft | 399 kts | 198° |
| 2026-05-04 20:13 | 38.98337 | -4.54702 | 33011 ft | 399 kts | 198° |
| 2026-05-04 20:13 | 38.92815 | -4.55857 | 33011 ft | 399 kts | 198° |
| 2026-05-04 20:14 | 38.87367 | -4.56992 | 33011 ft | 399 kts | 198° |
| 2026-05-04 20:14 | 38.81846 | -4.58140 | 33013 ft | 399 kts | 198° |
| 2026-05-04 20:15 | 38.76405 | -4.59270 | 33012 ft | 399 kts | 198° |
| 2026-05-04 20:15 | 38.70880 | -4.60415 | 33012 ft | 399 kts | 198° |
| 2026-05-04 20:16 | 38.65396 | -4.61551 | 33011 ft | 399 kts | 198° |
| 2026-05-04 20:16 | 38.59957 | -4.62683 | 33010 ft | 399 kts | 198° |
| 2026-05-04 20:17 | 38.54484 | -4.63819 | 33009 ft | 399 kts | 198° |
| 2026-05-04 20:17 | 38.49007 | -4.64951 | 33008 ft | 399 kts | 198° |
| 2026-05-04 20:18 | 38.43532 | -4.66078 | 33007 ft | 399 kts | 198° |
| 2026-05-04 20:18 | 38.38048 | -4.67205 | 33005 ft | 399 kts | 198° |
| 2026-05-04 20:19 | 38.32574 | -4.68328 | 33004 ft | 399 kts | 198° |
| 2026-05-04 20:19 | 38.27104 | -4.69450 | 33003 ft | 399 kts | 198° |
| 2026-05-04 20:20 | 38.21614 | -4.70574 | 33001 ft | 399 kts | 198° |
| 2026-05-04 20:20 | 38.17056 | -4.71506 | 32999 ft | 391 kts | 198° |
| 2026-05-04 20:21 | 38.12140 | -4.72509 | 32998 ft | 384 kts | 198° |
| 2026-05-04 20:21 | 38.04285 | -4.74119 | 32476 ft | 371 kts | 198° |
| 2026-05-04 20:22 | 38.01778 | -4.74632 | 32109 ft | 368 kts | 198° |
| 2026-05-04 20:22 | 37.99260 | -4.75146 | 31738 ft | 365 kts | 198° |
| 2026-05-04 20:22 | 37.96736 | -4.75660 | 31362 ft | 363 kts | 198° |
| 2026-05-04 20:22 | 37.94243 | -4.76167 | 30992 ft | 361 kts | 198° |
| 2026-05-04 20:23 | 37.91765 | -4.76670 | 30626 ft | 359 kts | 198° |
| 2026-05-04 20:23 | 37.89307 | -4.77169 | 30266 ft | 357 kts | 198° |
| 2026-05-04 20:23 | 37.86858 | -4.77666 | 29909 ft | 355 kts | 198° |
| 2026-05-04 20:23 | 37.84427 | -4.78158 | 29563 ft | 353 kts | 198° |
| 2026-05-04 20:24 | 37.82040 | -4.78642 | 29216 ft | 351 kts | 197° |
| 2026-05-04 20:24 | 37.79606 | -4.79145 | 28855 ft | 348 kts | 200° |
| 2026-05-04 20:24 | 37.77416 | -4.80206 | 28511 ft | 330 kts | 218° |
| 2026-05-04 20:24 | 37.75711 | -4.81995 | 28198 ft | 319 kts | 231° |
| 2026-05-04 20:25 | 37.74201 | -4.84103 | 27757 ft | 320 kts | 233° |
| 2026-05-04 20:25 | 37.72767 | -4.86239 | 27391 ft | 318 kts | 234° |
| 2026-05-04 20:25 | 37.71368 | -4.88396 | 27036 ft | 317 kts | 236° |
| 2026-05-04 20:25 | 37.70050 | -4.90580 | 26689 ft | 316 kts | 237° |
| 2026-05-04 20:26 | 37.68734 | -4.92831 | 26336 ft | 315 kts | 237° |
| 2026-05-04 20:26 | 37.67458 | -4.95031 | 25994 ft | 314 kts | 237° |
| 2026-05-04 20:26 | 37.66156 | -4.97286 | 25642 ft | 313 kts | 237° |
| 2026-05-04 20:26 | 37.64896 | -4.99476 | 25302 ft | 312 kts | 237° |
| 2026-05-04 20:27 | 37.63529 | -5.01612 | 24954 ft | 315 kts | 230° |
| 2026-05-04 20:27 | 37.61859 | -5.03412 | 24611 ft | 318 kts | 221° |
| 2026-05-04 20:27 | 37.60006 | -5.04968 | 24266 ft | 320 kts | 217° |
| 2026-05-04 20:27 | 37.58082 | -5.06386 | 23920 ft | 321 kts | 215° |
| 2026-05-04 20:28 | 37.56126 | -5.07756 | 23559 ft | 321 kts | 215° |
| 2026-05-04 20:28 | 37.54181 | -5.09121 | 23220 ft | 320 kts | 215° |
| 2026-05-04 20:28 | 37.52143 | -5.10293 | 22873 ft | 326 kts | 204° |
| 2026-05-04 20:28 | 37.49895 | -5.10892 | 22528 ft | 334 kts | 194° |
| 2026-05-04 20:29 | 37.47567 | -5.11101 | 22178 ft | 337 kts | 189° |
| 2026-05-04 20:29 | 37.45217 | -5.11123 | 21827 ft | 339 kts | 186° |
| 2026-05-04 20:29 | 37.42860 | -5.11073 | 21475 ft | 338 kts | 186° |
| 2026-05-04 20:29 | 37.40509 | -5.11015 | 21120 ft | 340 kts | 184° |
| 2026-05-04 20:30 | 37.38143 | -5.10516 | 20763 ft | 349 kts | 171° |
| 2026-05-04 20:30 | 37.35859 | -5.09419 | 20413 ft | 355 kts | 162° |
| 2026-05-04 20:30 | 37.33669 | -5.07943 | 20066 ft | 359 kts | 156° |
| 2026-05-04 20:30 | 37.31530 | -5.06304 | 19721 ft | 359 kts | 155° |
| 2026-05-04 20:31 | 37.29403 | -5.04699 | 19380 ft | 354 kts | 156° |
| 2026-05-04 20:31 | 37.27232 | -5.03351 | 19052 ft | 344 kts | 167° |
| 2026-05-04 20:31 | 37.24952 | -5.02623 | 18712 ft | 332 kts | 178° |
| 2026-05-04 20:31 | 37.22676 | -5.02356 | 18384 ft | 326 kts | 184° |
| 2026-05-04 20:32 | 37.20414 | -5.02295 | 18057 ft | 324 kts | 186° |
| 2026-05-04 20:32 | 37.18163 | -5.02293 | 17734 ft | 324 kts | 186° |
| 2026-05-04 20:32 | 37.15911 | -5.02281 | 17408 ft | 323 kts | 186° |
| 2026-05-04 20:32 | 37.13664 | -5.02260 | 17083 ft | 323 kts | 186° |
| 2026-05-04 20:33 | 37.11413 | -5.02233 | 16757 ft | 323 kts | 185° |
| 2026-05-04 20:33 | 37.09170 | -5.02204 | 16431 ft | 322 kts | 185° |
| 2026-05-04 20:33 | 37.06945 | -5.02174 | 16102 ft | 317 kts | 185° |
| 2026-05-04 20:33 | 37.04770 | -5.02144 | 15894 ft | 307 kts | 185° |
| 2026-05-04 20:34 | 37.02652 | -5.02114 | 15740 ft | 303 kts | 185° |
| 2026-05-04 20:34 | 37.00552 | -5.02084 | 15587 ft | 302 kts | 185° |
| 2026-05-04 20:34 | 36.98442 | -5.02055 | 15430 ft | 304 kts | 185° |
| 2026-05-04 20:34 | 36.96318 | -5.02025 | 15271 ft | 306 kts | 185° |
| 2026-05-04 20:35 | 36.94193 | -5.01708 | 15099 ft | 314 kts | 169° |
| 2026-05-04 20:35 | 36.92210 | -5.00483 | 14915 ft | 323 kts | 152° |
| 2026-05-04 20:35 | 36.90446 | -4.98726 | 14708 ft | 327 kts | 143° |
| 2026-05-04 20:35 | 36.88805 | -4.96756 | 14499 ft | 327 kts | 140° |
| 2026-05-04 20:36 | 36.87231 | -4.94721 | 14294 ft | 325 kts | 139° |
| 2026-05-04 20:36 | 36.85657 | -4.92700 | 14089 ft | 324 kts | 140° |
| 2026-05-04 20:36 | 36.84074 | -4.90690 | 13885 ft | 323 kts | 140° |
| 2026-05-04 20:36 | 36.82497 | -4.88697 | 13684 ft | 322 kts | 140° |
| 2026-05-04 20:37 | 36.81052 | -4.86872 | 13500 ft | 321 kts | 140° |
| 2026-05-04 20:37 | 36.79561 | -4.85029 | 13312 ft | 319 kts | 141° |
| 2026-05-04 20:37 | 36.77931 | -4.83140 | 13113 ft | 319 kts | 143° |
| 2026-05-04 20:37 | 36.76285 | -4.81290 | 12914 ft | 317 kts | 143° |
| 2026-05-04 20:38 | 36.74652 | -4.79453 | 12720 ft | 316 kts | 143° |
| 2026-05-04 20:38 | 36.73023 | -4.77615 | 12524 ft | 315 kts | 143° |
| 2026-05-04 20:38 | 36.71402 | -4.75785 | 12329 ft | 314 kts | 143° |
| 2026-05-04 20:38 | 36.69788 | -4.73960 | 12135 ft | 313 kts | 142° |
| 2026-05-04 20:39 | 36.68181 | -4.72144 | 11936 ft | 307 kts | 142° |
| 2026-05-04 20:39 | 36.66630 | -4.70388 | 11748 ft | 297 kts | 143° |
| 2026-05-04 20:39 | 36.65119 | -4.68678 | 11564 ft | 291 kts | 143° |
| 2026-05-04 20:39 | 36.63625 | -4.66987 | 11388 ft | 290 kts | 142° |
| 2026-05-04 20:40 | 36.62137 | -4.65303 | 11208 ft | 287 kts | 142° |
| 2026-05-04 20:40 | 36.60665 | -4.63638 | 11029 ft | 284 kts | 142° |
| 2026-05-04 20:40 | 36.59204 | -4.61989 | 10854 ft | 284 kts | 142° |
| 2026-05-04 20:40 | 36.57752 | -4.60351 | 10682 ft | 283 kts | 142° |
| 2026-05-04 20:41 | 36.56290 | -4.58702 | 10504 ft | 281 kts | 142° |
| 2026-05-04 20:41 | 36.54840 | -4.57054 | 10305 ft | 284 kts | 140° |
| 2026-05-04 20:41 | 36.53610 | -4.55107 | 10071 ft | 286 kts | 125° |
| 2026-05-04 20:41 | 36.52727 | -4.52917 | 9847 ft | 282 kts | 116° |
| 2026-05-04 20:42 | 36.52079 | -4.50636 | 9621 ft | 279 kts | 110° |
| 2026-05-04 20:42 | 36.51506 | -4.48344 | 9394 ft | 275 kts | 111° |
| 2026-05-04 20:42 | 36.50901 | -4.46096 | 9173 ft | 275 kts | 111° |
| 2026-05-04 20:42 | 36.50286 | -4.43856 | 8928 ft | 274 kts | 111° |
| 2026-05-04 20:43 | 36.49663 | -4.41632 | 8676 ft | 271 kts | 114° |
| 2026-05-04 20:43 | 36.48801 | -4.39560 | 8421 ft | 266 kts | 126° |
| 2026-05-04 20:43 | 36.47711 | -4.37749 | 8169 ft | 258 kts | 133° |
| 2026-05-04 20:43 | 36.46535 | -4.36091 | 7918 ft | 254 kts | 136° |
| 2026-05-04 20:44 | 36.45325 | -4.34498 | 7670 ft | 253 kts | 138° |
| 2026-05-04 20:44 | 36.44128 | -4.32905 | 7419 ft | 251 kts | 136° |
| 2026-05-04 20:44 | 36.42967 | -4.31291 | 7168 ft | 250 kts | 135° |
| 2026-05-04 20:44 | 36.41814 | -4.29683 | 6917 ft | 249 kts | 135° |
| 2026-05-04 20:45 | 36.40663 | -4.28078 | 6667 ft | 249 kts | 135° |
| 2026-05-04 20:45 | 36.39516 | -4.26485 | 6417 ft | 247 kts | 135° |
| 2026-05-04 20:45 | 36.38370 | -4.24896 | 6163 ft | 246 kts | 135° |
| 2026-05-04 20:45 | 36.37439 | -4.23115 | 5882 ft | 250 kts | 112° |
| 2026-05-04 20:46 | 36.37233 | -4.20985 | 5637 ft | 252 kts | 85° |
| 2026-05-04 20:46 | 36.37782 | -4.18959 | 5385 ft | 248 kts | 56° |
| 2026-05-04 20:46 | 36.38933 | -4.17423 | 5161 ft | 242 kts | 38° |
| 2026-05-04 20:46 | 36.40301 | -4.16265 | 4893 ft | 234 kts | 15° |
| 2026-05-04 20:47 | 36.41849 | -4.16115 | 4680 ft | 217 kts | 349° |
| 2026-05-04 20:47 | 36.43247 | -4.16570 | 4452 ft | 200 kts | 332° |
| 2026-05-04 20:47 | 36.44362 | -4.17511 | 4204 ft | 189 kts | 315° |
| 2026-05-04 20:47 | 36.45264 | -4.18650 | 3952 ft | 183 kts | 309° |
| 2026-05-04 20:48 | 36.46077 | -4.19853 | 3701 ft | 181 kts | 307° |
| 2026-05-04 20:48 | 36.46890 | -4.21051 | 3451 ft | 181 kts | 308° |
| 2026-05-04 20:48 | 36.47711 | -4.22235 | 3201 ft | 181 kts | 308° |
| 2026-05-04 20:48 | 36.48532 | -4.23405 | 3011 ft | 178 kts | 308° |
| 2026-05-04 20:49 | 36.49345 | -4.24553 | 2990 ft | 176 kts | 308° |
| 2026-05-04 20:49 | 36.50157 | -4.25694 | 2976 ft | 177 kts | 308° |
| 2026-05-04 20:49 | 36.50979 | -4.26845 | 2881 ft | 177 kts | 308° |
| 2026-05-04 20:49 | 36.51770 | -4.27950 | 2741 ft | 166 kts | 309° |
| 2026-05-04 20:50 | 36.52522 | -4.29001 | 2523 ft | 160 kts | 309° |
| 2026-05-04 20:50 | 36.53252 | -4.30019 | 2257 ft | 157 kts | 309° |
| 2026-05-04 20:50 | 36.54001 | -4.31064 | 2032 ft | 167 kts | 309° |
| 2026-05-04 20:50 | 36.54795 | -4.32172 | 2011 ft | 175 kts | 309° |
| 2026-05-04 20:51 | 36.55617 | -4.33320 | 2023 ft | 180 kts | 309° |
| 2026-05-04 20:51 | 36.56452 | -4.34484 | 2018 ft | 181 kts | 309° |
| 2026-05-04 20:51 | 36.57287 | -4.35649 | 2011 ft | 180 kts | 309° |
| 2026-05-04 20:51 | 36.58122 | -4.36815 | 2006 ft | 180 kts | 309° |
| 2026-05-04 20:52 | 36.58955 | -4.37979 | 2003 ft | 180 kts | 309° |
| 2026-05-04 20:52 | 36.59790 | -4.39145 | 1961 ft | 182 kts | 309° |
| 2026-05-04 20:52 | 36.60640 | -4.40331 | 1758 ft | 184 kts | 309° |
| 2026-05-04 20:52 | 36.61461 | -4.41479 | 1525 ft | 171 kts | 309° |
| 2026-05-04 20:53 | 36.62223 | -4.42543 | 1315 ft | 159 kts | 309° |
| 2026-05-04 20:53 | 36.62945 | -4.43553 | 1089 ft | 153 kts | 309° |
| 2026-05-04 20:53 | 36.63642 | -4.44527 | 888 ft | 149 kts | 309° |
| 2026-05-04 20:53 | 36.64325 | -4.45481 | 679 ft | 146 kts | 310° |
| 2026-05-04 20:54 | 36.64997 | -4.46426 | 447 ft | 146 kts | 309° |
| 2026-05-04 20:54 | 36.65663 | -4.47359 | 290 ft | 143 kts | 310° |
| 2026-05-04 20:54 | 36.66326 | -4.48288 | 147 ft | 144 kts | 310° |
| 2026-05-04 20:54 | 36.66980 | -4.49210 | 45 ft | 135 kts | 311° |
| 2026-05-04 20:55 | 36.67520 | -4.49950 | 44 ft | 85 kts | 307° |
| 2026-05-04 20:55 | 36.67746 | -4.50194 | 44 ft | 27 kts | 335° |
| 2026-05-04 20:55 | 36.67820 | -4.50231 | 44 ft | 7 kts | 343° |
| 2026-05-04 20:55 | 36.67853 | -4.50230 | 44 ft | 8 kts | 27° |
| 2026-05-04 20:56 | 36.67862 | -4.50145 | 44 ft | 7 kts | 130° |
| 2026-05-04 20:56 | 36.67810 | -4.50068 | 44 ft | 15 kts | 130° |
| 2026-05-04 20:56 | 36.67742 | -4.49972 | 44 ft | 13 kts | 131° |
| 2026-05-04 20:56 | 36.67708 | -4.49887 | 44 ft | 11 kts | 69° |
| 2026-05-04 20:57 | 36.67697 | -4.49773 | 44 ft | 12 kts | 128° |
| 2026-05-04 20:57 | 36.67654 | -4.49708 | 44 ft | 6 kts | 107° |
| 2026-05-04 20:57 | 36.67659 | -4.49678 | 44 ft | 6 kts | 68° |
| 2026-05-04 20:57 | 36.67702 | -4.49614 | 44 ft | 9 kts | 42° |
| 2026-05-04 20:58 | 36.67731 | -4.49583 | 44 ft | 0 kts | 41° |
| 2026-05-04 20:58 | 36.67732 | -4.49581 | 44 ft | 0 kts | 41° |